Urb Remanzo Taino, Puerto Rico
Current Conditions -  °F | °C
As of 5:56 AM on Thursday 27 Nov 2014 (Local Time) from TJSJ Reporting Station
Scattered Clouds Scattered Clouds  
Wind Chill: 74°   Ceiling: Unl
Heat Index: 74°   Visibility: 10mi
Dew Point: 71°   Wind: 0mph
Humidity: 91%   Direction: NA
Pressure: 29.98"   Gusts: NA
Location:  18.4083°N, 65.981°W
Report Text: TJSJ 270956Z 00000KT 10SM SCT035 SCT065 23/22 A2998 RMK AO2 SLP152 T02330217
Loading
Personal Weather Stations






























Interactive Weather Map New forecast layout! Learn more

10-Day Weather Forecast

Advertisements
Track Severe Weather on mobile